Time;durP1;ratioP1;P1;durP2;ratioP2;P2;SDS_P1;SDS_P2;PMS_P1;PMS_P2;Temp;Humidity;BMP_temperature;BMP_pressure;BME280_temperature;BME280_humidity;BME280_pressure;Samples;Min_cycle;Max_cycle;Signal;HPM_P1;HPM_P2
2022/08/02 16:38:51;;;;;;;;;;;;;;;30.07;48.99;100673.56;5104573;27;1611;-53
2022/08/02 16:41:18;;;;;;;;;;;;;;;31.65;43.69;100677.72;5097578;28;1324;-49
2022/08/02 16:43:45;;;;;;;;;;;;;;;31.65;43.69;100677.72;5079867;28;1326;-37
2022/08/02 16:46:12;;;;;;;;;;;;;;;27.73;43.01;100682.16;5087722;28;1116;-62
2022/08/02 16:48:39;;;;;;;;;;;;;;;27.23;44.39;100676.22;5088536;28;1287;-66
2022/08/02 16:51:06;;;;;;;;;;;;;;;26.79;42.31;100679.47;5084833;28;1236;-44
2022/08/02 16:53:40;;;;;;;;;;;;;;;26.33;43.47;100686.31;5083582;28;1279;-45
2022/08/02 16:56:29;;;;;;;;;;;;;;;26.19;43.92;100684.03;5085007;28;1922;-45
2022/08/02 16:58:56;;;;;;;;;;;;;;;26.24;43.51;100687.13;5081156;28;1497;-45
2022/08/02 17:01:25;;;;;;;;;;;;;;;26.15;43.40;100698.63;5083140;28;1172;-47
2022/08/02 17:04:12;;;;;;;;;;;;;;;26.20;43.79;100698.25;5084053;28;2137;-42
2022/08/02 17:06:40;;;;;;;;;;;;;;;26.28;43.76;100701.91;5083045;28;1300;-47
2022/08/02 17:09:18;;;;;;;;;;;;;;;26.24;43.28;100691.63;5084975;28;1081;-43
2022/08/02 17:12:04;;;;;;;;;;;;;;;26.28;43.78;100691.22;5087049;28;2140;-40
2022/08/02 17:14:36;;;;;;;;;;;;;;;26.26;44.00;100693.22;5086673;28;1180;-41
2022/08/02 17:17:20;;;;;;;;;;;;;;;26.21;43.43;100692.75;5084613;28;1994;-43
2022/08/02 17:19:59;;;;;;;;;;;;;;;26.23;43.69;100696.16;5068833;28;1215;-40
2022/08/02 17:22:26;;;;;;;;;;;;;;;26.25;43.35;100694.19;5085382;28;1308;-43
2022/08/02 17:24:52;;;;;;;;;;;;;;;26.17;43.69;100699.38;5080828;28;1669;-51
2022/08/02 17:27:19;;;;;;;;;;;;;;;26.19;43.98;100704.56;5084977;28;1395;-44
2022/08/02 17:29:46;;;;;;;;;;;;;;;26.13;43.48;100699.72;5084607;28;1204;-52
2022/08/02 17:35:24;;;;;;;;;;;;;;;29.90;39.66;100693.31;5101191;27;1523;-42
2022/08/02 17:38:08;;;;;;;;;;;;;;;30.55;41.88;100698.94;5090158;28;1664;-42
2022/08/02 17:40:35;;;;;;;;;;;;;;;30.68;45.81;100688.50;5087016;28;1219;-40
2022/08/02 17:43:02;;;;;;;;;;;;;;;29.87;44.82;100692.78;5085822;28;1389;-42
2022/08/02 17:45:42;;;;;;;;;;;;;;;30.17;44.26;100697.59;5085776;28;1203;-42
2022/08/02 17:49:14;;;;;;;;;;;;;;;30.40;46.00;100705.94;5088007;28;1386;-42
2022/08/02 17:51:15;;;;;;;;;;;;;;;30.18;44.88;100704.66;5089425;28;746;-41
2022/08/02 17:54:02;;;;;;;;;;;;;;;29.98;44.80;100709.44;5088979;28;2188;-43
2022/08/02 17:56:28;;;;;;;;;;;;;;;29.75;45.23;100710.97;5089363;28;1091;-43
2022/08/02 17:58:55;;;;;;;;;;;;;;;30.11;46.85;100707.16;5089440;28;1314;-42
2022/08/02 18:01:22;;;;;;;;;;;;;;;30.13;46.59;100709.66;5089441;28;1205;-40
2022/08/02 18:03:51;;;;;;;;;;;;;;;30.21;45.65;100707.88;5089344;28;1255;-43
2022/08/02 18:06:20;;;;;;;;;;;;;;;29.90;45.04;100713.94;5089115;28;1013;-41
2022/08/02 18:08:51;;;;;;;;;;;;;;;30.14;44.80;100722.09;5089241;28;1331;-42
2022/08/02 18:11:21;;;;;;;;;;;;;;;30.16;44.49;100723.63;5089160;28;1293;-43
2022/08/02 18:14:08;;;;;;;;;;;;;;;30.44;44.02;100728.78;5089330;28;2454;-44
2022/08/02 18:16:34;;;;;;;;;;;;;;;30.51;43.25;100738.72;5088229;28;1264;-41
2022/08/02 18:19:06;;;;;;;;;;;;;;;30.31;43.83;100739.94;5089460;28;1137;-42
2022/08/02 18:21:42;;;;;;;;;;;;;;;30.26;44.21;100742.31;5089285;28;1287;-38
2022/08/02 18:24:11;;;;;;;;;;;;;;;30.42;43.97;100747.78;5089392;28;1032;-42
2022/08/02 18:26:39;;;;;;;;;;;;;;;30.25;44.06;100745.97;5089206;28;1212;-40
2022/08/02 18:29:09;;;;;;;;;;;;;;;29.85;44.92;100753.88;5089089;28;1049;-39
2022/08/02 18:31:38;;;;;;;;;;;;;;;29.85;44.55;100751.19;5088961;28;1196;-42
2022/08/02 18:34:18;;;;;;;;;;;;;;;30.07;43.82;100747.91;5088639;28;1914;-41
2022/08/02 18:36:49;;;;;;;;;;;;;;;30.48;42.46;100749.81;5089022;28;1345;-41
2022/08/02 18:39:16;;;;;;;;;;;;;;;30.37;42.70;100749.25;5088881;28;1163;-43
2022/08/02 18:41:43;;;;;;;;;;;;;;;30.05;43.75;100753.47;5087751;28;1442;-43
2022/08/02 18:44:13;;;;;;;;;;;;;;;30.16;43.14;100744.25;5088814;28;1120;-38
2022/08/02 18:46:41;;;;;;;;;;;;;;;29.96;43.72;100751.75;5075238;28;1740;-41
2022/08/02 18:49:08;;;;;;;;;;;;;;;30.03;43.93;100749.25;5075254;28;1271;-39
2022/08/02 18:51:40;;;;;;;;;;;;;;;29.98;45.51;100748.88;5075310;28;1295;-43
2022/08/02 18:54:07;;;;;;;;;;;;;;;30.20;44.74;100759.91;5075024;28;1989;-43
2022/08/02 18:56:34;;;;;;;;;;;;;;;30.21;44.86;100750.00;5074859;28;1287;-41
2022/08/02 18:59:05;;;;;;;;;;;;;;;30.26;44.30;100744.97;5074552;28;1035;-41
2022/08/02 19:01:33;;;;;;;;;;;;;;;29.84;45.03;100746.78;5074783;28;1217;-41
2022/08/02 19:04:12;;;;;;;;;;;;;;;30.18;44.81;100743.13;5073588;28;1449;-42
2022/08/02 19:06:38;;;;;;;;;;;;;;;30.10;45.24;100747.59;5072155;28;1224;-43
2022/08/02 19:09:06;;;;;;;;;;;;;;;30.30;44.92;100755.25;5074703;28;1086;-37
2022/08/02 19:11:42;;;;;;;;;;;;;;;30.19;45.18;100757.38;5074469;28;1384;-43
2022/08/02 19:14:13;;;;;;;;;;;;;;;30.18;46.59;100755.72;5074549;28;1910;-40
2022/08/02 19:16:53;;;;;;;;;;;;;;;30.33;45.85;100746.03;5073563;28;1422;-45
2022/08/02 19:19:20;;;;;;;;;;;;;;;30.54;45.15;100746.47;5074139;28;1155;-46
2022/08/02 19:21:47;;;;;;;;;;;;;;;30.17;46.00;100748.63;5072972;28;1432;-45
2022/08/02 19:24:35;;;;;;;;;;;;;;;30.40;45.34;100757.81;5074644;28;2016;-45
2022/08/02 19:27:02;;;;;;;;;;;;;;;30.30;45.73;100754.41;5074214;28;1347;-45
2022/08/02 19:29:39;;;;;;;;;;;;;;;30.19;45.93;100749.31;5074420;28;1037;-45
2022/08/02 19:32:14;;;;;;;;;;;;;;;30.20;46.18;100748.31;5068730;28;1291;-44
2022/08/02 19:35:00;;;;;;;;;;;;;;;30.15;47.23;100738.06;5073611;28;2151;-44
2022/08/02 19:37:27;;;;;;;;;;;;;;;30.15;47.73;100734.53;5074209;28;1338;-44
2022/08/02 19:40:04;;;;;;;;;;;;;;;30.20;47.98;100737.56;5074046;28;1207;-44
2022/08/02 19:42:31;;;;;;;;;;;;;;;30.17;47.88;100738.75;5073922;28;1240;-44
2022/08/02 19:45:18;;;;;;;;;;;;;;;30.40;47.61;100743.56;5074449;28;2374;-45
2022/08/02 19:48:13;;;;;;;;;;;;;;;30.12;49.00;100745.59;5074066;28;2032;-44
2022/08/02 19:50:41;;;;;;;;;;;;;;;29.99;49.10;100742.50;5073915;28;1041;-43
2022/08/02 19:53:15;;;;;;;;;;;;;;;30.03;49.42;100744.72;5073872;28;1319;-44
2022/08/02 19:55:42;;;;;;;;;;;;;;;29.99;49.84;100742.50;5073832;28;1914;-44
2022/08/02 19:58:28;;;;;;;;;;;;;;;29.71;51.02;100747.19;5072899;28;1282;-44
2022/08/02 20:00:55;;;;;;;;;;;;;;;29.63;51.08;100758.72;5073597;28;1001;-45
2022/08/02 20:03:22;;;;;;;;;;;;;;;29.94;50.36;100752.91;5073434;28;1322;-44
2022/08/02 20:06:09;;;;;;;;;;;;;;;29.80;51.22;100763.19;5073541;28;2200;-43
2022/08/02 20:08:37;;;;;;;;;;;;;;;29.79;51.26;100774.09;5073478;28;1271;-44
2022/08/02 20:11:04;;;;;;;;;;;;;;;29.94;51.51;100771.69;5073460;28;1127;-43
2022/08/02 20:13:40;;;;;;;;;;;;;;;29.61;51.96;100774.13;5073550;28;1999;-44
2022/08/02 20:16:13;;;;;;;;;;;;;;;29.56;51.66;100760.34;5073379;28;1099;-43
2022/08/02 20:18:54;;;;;;;;;;;;;;;29.55;52.42;100769.41;5073488;28;1429;-43
2022/08/02 20:21:21;;;;;;;;;;;;;;;29.85;51.43;100778.03;5073255;28;1093;-44
2022/08/02 20:24:02;;;;;;;;;;;;;;;29.44;52.63;100776.84;5073210;28;1125;-43
2022/08/02 20:26:29;;;;;;;;;;;;;;;29.68;51.66;100777.88;5073080;28;1052;-43
2022/08/02 20:28:57;;;;;;;;;;;;;;;29.73;51.36;100786.28;5072358;28;1105;-43
2022/08/02 20:31:28;;;;;;;;;;;;;;;29.83;51.59;100783.53;5072671;28;1754;-43
2022/08/02 20:33:55;;;;;;;;;;;;;;;29.79;51.44;100790.22;5072679;28;1987;-44
2022/08/02 20:36:22;;;;;;;;;;;;;;;29.86;51.70;100783.22;5072868;28;1123;-45
2022/08/02 20:38:49;;;;;;;;;;;;;;;29.88;51.58;100785.75;5073083;28;1208;-44
2022/08/02 20:41:16;;;;;;;;;;;;;;;29.83;51.03;100782.69;5072715;28;1049;-43
2022/08/02 20:43:47;;;;;;;;;;;;;;;29.93;50.81;100786.97;5076013;28;1842;-43
2022/08/02 20:46:14;;;;;;;;;;;;;;;29.88;50.68;100785.75;5076220;28;1799;-43
2022/08/02 20:48:40;;;;;;;;;;;;;;;29.84;51.62;100789.75;5072825;28;1632;-44
2022/08/02 20:51:09;;;;;;;;;;;;;;;29.92;50.18;100795.16;5075055;28;1139;-44
2022/08/02 20:53:39;;;;;;;;;;;;;;;29.61;51.19;100784.88;5072372;28;1311;-45
2022/08/02 20:56:21;;;;;;;;;;;;;;;29.79;50.50;100785.66;5071623;28;1071;-45
2022/08/02 20:58:48;;;;;;;;;;;;;;;29.96;49.70;100788.50;5075161;28;1198;-44
2022/08/02 21:01:18;;;;;;;;;;;;;;;29.84;49.41;100784.38;5076005;28;1079;-44
2022/08/02 21:03:47;;;;;;;;;;;;;;;29.87;49.28;100782.22;5071925;28;1310;-44
2022/08/02 21:06:25;;;;;;;;;;;;;;;29.57;49.08;100778.16;5072412;28;1084;-44
2022/08/02 21:08:53;;;;;;;;;;;;;;;29.73;48.91;100780.09;5072083;28;1218;-44
2022/08/02 21:11:20;;;;;;;;;;;;;;;29.83;48.33;100777.31;5072441;28;1072;-44
2022/08/02 21:13:59;;;;;;;;;;;;;;;29.61;46.68;100775.97;5071127;28;1991;-49
2022/08/02 21:16:33;;;;;;;;;;;;;;;29.60;46.68;100769.78;5073941;28;1303;-44
2022/08/02 21:19:00;;;;;;;;;;;;;;;29.65;46.68;100769.28;5071620;28;1040;-44
2022/08/02 21:21:27;;;;;;;;;;;;;;;29.90;46.24;100773.00;5049551;28;1139;-44
2022/08/02 21:23:55;;;;;;;;;;;;;;;29.70;47.37;100767.81;5056591;28;1128;-45
2022/08/02 21:26:23;;;;;;;;;;;;;;;29.69;46.24;100768.84;5071677;28;1687;-39
2022/08/02 21:28:56;;;;;;;;;;;;;;;29.53;46.43;100766.03;5072602;28;1221;-38
2022/08/02 21:31:23;;;;;;;;;;;;;;;29.73;46.47;100767.50;5069031;28;1225;-41
2022/08/02 21:33:57;;;;;;;;;;;;;;;29.63;46.45;100766.78;5071196;28;1431;-38
2022/08/02 21:36:26;;;;;;;;;;;;;;;29.76;46.50;100772.56;5072813;28;1375;-39
2022/08/02 21:38:58;;;;;;;;;;;;;;;29.45;46.79;100774.03;5073241;28;1395;-35
2022/08/02 21:41:30;;;;;;;;;;;;;;;29.35;46.94;100767.91;5087474;28;1311;-40
2022/08/02 21:44:18;;;;;;;;;;;;;;;29.41;46.55;100772.66;5074558;28;2108;-40
2022/08/02 21:46:47;;;;;;;;;;;;;;;29.59;45.98;100769.94;5073070;28;1278;-38
2022/08/02 21:49:16;;;;;;;;;;;;;;;29.61;45.31;100778.66;5072182;28;1183;-43
2022/08/02 21:51:43;;;;;;;;;;;;;;;29.41;44.64;100782.53;5068801;28;1292;-38
2022/08/02 21:54:16;;;;;;;;;;;;;;;29.37;44.86;100773.94;5070602;28;1913;-42
2022/08/02 21:56:47;;;;;;;;;;;;;;;29.58;43.80;100774.44;5070908;28;1276;-41
2022/08/02 21:59:15;;;;;;;;;;;;;;;29.57;45.20;100767.41;5072788;28;1196;-40
2022/08/02 22:01:42;;;;;;;;;;;;;;;29.70;45.05;100772.34;5074416;28;1373;-43
2022/08/02 22:04:18;;;;;;;;;;;;;;;29.20;45.18;100778.31;5067277;28;1266;-39
2022/08/02 22:06:45;;;;;;;;;;;;;;;29.31;44.27;100768.34;5069116;28;1369;-40
2022/08/02 22:09:15;;;;;;;;;;;;;;;29.30;44.05;100766.69;5070346;28;1288;-43
2022/08/02 22:12:03;;;;;;;;;;;;;;;29.52;44.44;100764.34;5069699;28;2206;-41
2022/08/02 22:14:32;;;;;;;;;;;;;;;29.44;43.70;100771.50;5069677;28;1910;-36
2022/08/02 22:16:59;;;;;;;;;;;;;;;29.34;44.11;100781.47;5072010;28;1403;-44
2022/08/02 22:19:33;;;;;;;;;;;;;;;29.48;43.76;100772.88;5064193;28;1446;-43
2022/08/02 22:22:00;;;;;;;;;;;;;;;29.30;43.57;100780.09;5063430;28;1364;-38
2022/08/02 22:24:27;;;;;;;;;;;;;;;29.48;43.50;100773.72;5065676;28;1336;-41
2022/08/02 22:26:55;;;;;;;;;;;;;;;29.56;44.03;100775.59;5065454;28;1350;-41
2022/08/02 22:29:22;;;;;;;;;;;;;;;29.26;44.04;100777.72;5071884;28;1482;-42
2022/08/02 22:31:50;;;;;;;;;;;;;;;29.29;43.32;100773.91;5062865;28;1333;-40
2022/08/02 22:34:17;;;;;;;;;;;;;;;29.13;43.70;100782.59;5073926;28;1986;-42
2022/08/02 22:37:03;;;;;;;;;;;;;;;29.15;43.38;100783.28;5070662;28;2219;-40
2022/08/02 22:39:33;;;;;;;;;;;;;;;29.13;43.67;100779.06;5074145;28;1286;-41
2022/08/02 22:41:59;;;;;;;;;;;;;;;29.28;43.78;100782.94;5076336;28;1264;-38
2022/08/02 22:44:32;;;;;;;;;;;;;;;29.31;43.43;100779.94;5070582;28;1332;-38
2022/08/02 22:46:59;;;;;;;;;;;;;;;29.41;43.73;100782.53;5073347;28;1250;-36
2022/08/02 22:49:47;;;;;;;;;;;;;;;29.40;43.41;100781.69;5073450;28;2181;-39
2022/08/02 22:52:22;;;;;;;;;;;;;;;29.20;42.96;100774.78;5073486;28;1505;-38
2022/08/02 22:54:49;;;;;;;;;;;;;;;29.02;43.52;100777.47;5070989;28;1938;-40
2022/08/02 22:57:16;;;;;;;;;;;;;;;29.05;43.72;100781.69;5071755;28;1382;-42
2022/08/02 22:59:57;;;;;;;;;;;;;;;29.24;43.07;100777.03;5071473;28;1200;-39
2022/08/02 23:02:23;;;;;;;;;;;;;;;29.29;44.07;100776.56;5072730;28;1351;-39
2022/08/02 23:04:50;;;;;;;;;;;;;;;29.38;43.49;100772.97;5075862;28;1106;-41
2022/08/02 23:07:17;;;;;;;;;;;;;;;29.07;43.76;100777.00;5075031;28;1220;-40
2022/08/02 23:09:43;;;;;;;;;;;;;;;29.30;42.95;100769.38;5074848;28;1676;-43
2022/08/02 23:12:10;;;;;;;;;;;;;;;28.91;43.35;100769.66;5074978;28;1364;-42
2022/08/02 23:14:37;;;;;;;;;;;;;;;28.95;43.46;100773.72;5074945;28;1918;-38
2022/08/02 23:19:51;;;;;;;;;;;;;;;28.96;43.85;100771.88;5074945;28;1124;-40
2022/08/02 23:22:20;;;;;;;;;;;;;;;28.97;43.77;100770.91;5074829;28;1277;-42
2022/08/02 23:24:56;;;;;;;;;;;;;;;28.85;43.91;100774.81;5075059;28;1138;-40
2022/08/02 23:27:22;;;;;;;;;;;;;;;29.10;43.23;100768.66;5074730;28;1197;-42
2022/08/02 23:29:49;;;;;;;;;;;;;;;28.83;44.18;100777.63;5074743;28;1128;-43
2022/08/02 23:32:16;;;;;;;;;;;;;;;29.04;45.00;100772.81;5084220;28;1774;-41
2022/08/02 23:34:48;;;;;;;;;;;;;;;28.95;43.95;100770.19;5077150;28;1984;-42
2022/08/02 23:37:15;;;;;;;;;;;;;;;29.00;43.82;100774.09;5094480;28;1274;-39
2022/08/02 23:39:42;;;;;;;;;;;;;;;29.13;43.64;100771.03;5085268;28;1129;-37
2022/08/02 23:42:08;;;;;;;;;;;;;;;28.90;43.99;100772.50;5092503;28;1228;-40
2022/08/02 23:44:35;;;;;;;;;;;;;;;28.96;44.22;100771.88;5072509;28;946;-43
2022/08/02 23:47:02;;;;;;;;;;;;;;;28.92;43.40;100765.13;5072209;28;1204;-41
2022/08/02 23:49:29;;;;;;;;;;;;;;;28.93;43.25;100761.47;5072014;28;1100;-41
2022/08/02 23:51:56;;;;;;;;;;;;;;;29.10;43.39;100755.25;5072233;28;1299;-41
2022/08/02 23:54:27;;;;;;;;;;;;;;;28.95;43.34;100752.28;5073477;28;1143;-40
2022/08/02 23:56:54;;;;;;;;;;;;;;;29.16;42.69;100751.94;5074153;28;1969;-41
2022/08/02 23:59:21;;;;;;;;;;;;;;;29.05;42.75;100755.72;5072911;28;1083;-43
